AFL0101 URSS-UNNT
Flight info
| Callsign | AFL0101 |
|---|---|
| Flight time | N/A |
| Altitude | 37000 |
| Route | IRGID A944 GUBOR G487 ERSAR DCT BEMES DCT ITAKA N154 AKT P574 AGNIM/K0856F390 P574 OGANU N55 DAKIN B944 GOLIM |
| Aircraft | A346/H-V/N |
Departure
| Time | 2026-05-01 12:28 |
|---|---|
| Airport | Sochi International Airport (URSS) |
Arrival
| Time | N/A |
|---|---|
| Airport | Novosibirsk Tolmachevo Airport (UNNT) |
| Time | Latitude | Longitude | Altitude | Speed | Heading |
|---|---|---|---|---|---|
| 2026-05-01 12:21 | 43.44860 | 39.94891 | 67 ft | 1 kts | 63° |
| 2026-05-01 12:21 | 43.44858 | 39.94885 | 67 ft | 0 kts | 66° |
| 2026-05-01 12:23 | 43.44859 | 39.94889 | 67 ft | 1 kts | 66° |
| 2026-05-01 12:23 | 43.44869 | 39.94922 | 67 ft | 5 kts | 66° |
| 2026-05-01 12:23 | 43.44888 | 39.94982 | 68 ft | 7 kts | 66° |
| 2026-05-01 12:24 | 43.44900 | 39.95018 | 69 ft | 8 kts | 66° |
| 2026-05-01 12:24 | 43.44932 | 39.95106 | 71 ft | 21 kts | 63° |
| 2026-05-01 12:24 | 43.44998 | 39.95280 | 73 ft | 15 kts | 65° |
| 2026-05-01 12:25 | 43.45027 | 39.95368 | 75 ft | 7 kts | 65° |
| 2026-05-01 12:25 | 43.45052 | 39.95456 | 77 ft | 0 kts | 84° |
| 2026-05-01 12:26 | 43.45050 | 39.95484 | 78 ft | 3 kts | 105° |
| 2026-05-01 12:26 | 43.45029 | 39.95520 | 78 ft | 7 kts | 136° |
| 2026-05-01 12:27 | 43.44991 | 39.95551 | 77 ft | 5 kts | 179° |
| 2026-05-01 12:27 | 43.44897 | 39.95361 | 74 ft | 48 kts | 245° |
| 2026-05-01 12:28 | 43.44235 | 39.93396 | 69 ft | 165 kts | 247° |
| 2026-05-01 12:28 | 43.43789 | 39.91892 | 464 ft | 173 kts | 250° |
| 2026-05-01 12:28 | 43.43782 | 39.88779 | 1531 ft | 175 kts | 306° |
| 2026-05-01 12:29 | 43.44535 | 39.87420 | 1973 ft | 188 kts | 310° |
| 2026-05-01 12:29 | 43.45379 | 39.85955 | 2389 ft | 205 kts | 308° |
| 2026-05-01 12:29 | 43.47207 | 39.82508 | 3288 ft | 241 kts | 304° |
| 2026-05-01 12:30 | 43.49220 | 39.78454 | 4377 ft | 269 kts | 302° |
| 2026-05-01 12:30 | 43.50251 | 39.76338 | 5181 ft | 272 kts | 301° |
| 2026-05-01 12:30 | 43.51304 | 39.74162 | 5976 ft | 275 kts | 301° |
| 2026-05-01 12:31 | 43.52364 | 39.71966 | 6749 ft | 278 kts | 301° |
| 2026-05-01 12:31 | 43.53424 | 39.69773 | 7531 ft | 280 kts | 300° |
| 2026-05-01 12:31 | 43.54500 | 39.67543 | 8305 ft | 282 kts | 300° |
| 2026-05-01 12:32 | 43.56756 | 39.62859 | 9880 ft | 286 kts | 298° |
| 2026-05-01 12:32 | 43.58981 | 39.58213 | 10908 ft | 305 kts | 298° |
| 2026-05-01 12:32 | 43.60182 | 39.55697 | 11246 ft | 321 kts | 298° |